Huancavelica, Peru
Current Conditions -  °F | °C
As of 6:00 PM on Saturday 25 Oct 2014 (Local Time) from SPHO Reporting Station
Broken Clouds Broken Clouds  
Wind Chill: 68°   Ceiling: 7000
Heat Index: 68°   Visibility: 6mi
Dew Point: 50°   Wind: 6mph
Humidity: 52%   Direction: 300°WNW
Pressure: 30.27"   Gusts: NA
Location:  12.79°S, 74.99°W
Report Text: SPHO 252300Z 30005KT 270V360 9999 BKN070 20/10 Q1025 RMK PP000
Loading
Personal Weather Stations






























Interactive Weather Map
Tropical Storm Tracking
New forecast layout! Learn more

10-Day Weather Forecast

Advertisements
Track Severe Weather on mobile